sensor_id;sensor_type;location;lat;lon;timestamp;P1;P2;P0
54869;PMS5003;40756;-37.950;145.008;2023-02-28T00:01:50;6;6;
54869;PMS5003;40756;-37.950;145.008;2023-02-28T00:04:19;6;6;
54869;PMS5003;40756;-37.950;145.008;2023-02-28T00:06:48;6;6;
54869;PMS5003;40756;-37.950;145.008;2023-02-28T00:09:18;8;7;
54869;PMS5003;40756;-37.950;145.008;2023-02-28T00:11:47;10;8;
54869;PMS5003;40756;-37.950;145.008;2023-02-28T00:14:17;6;6;
54869;PMS5003;40756;-37.950;145.008;2023-02-28T00:16:48;6;6;
54869;PMS5003;40756;-37.950;145.008;2023-02-28T00:19:18;7;6;
54869;PMS5003;40756;-37.950;145.008;2023-02-28T00:21:47;9;8;
54869;PMS5003;40756;-37.950;145.008;2023-02-28T00:24:17;8;8;
54869;PMS5003;40756;-37.950;145.008;2023-02-28T00:26:47;9;8;
54869;PMS5003;40756;-37.950;145.008;2023-02-28T00:29:17;7;6;
54869;PMS5003;40756;-37.950;145.008;2023-02-28T00:31:46;6;6;
54869;PMS5003;40756;-37.950;145.008;2023-02-28T00:34:16;7;6;
54869;PMS5003;40756;-37.950;145.008;2023-02-28T00:36:46;6;6;
54869;PMS5003;40756;-37.950;145.008;2023-02-28T00:39:16;7;7;
54869;PMS5003;40756;-37.950;145.008;2023-02-28T00:41:46;6;5;
54869;PMS5003;40756;-37.950;145.008;2023-02-28T00:44:15;7;5;
54869;PMS5003;40756;-37.950;145.008;2023-02-28T00:46:45;8;8;
54869;PMS5003;40756;-37.950;145.008;2023-02-28T00:49:15;8;7;
54869;PMS5003;40756;-37.950;145.008;2023-02-28T00:51:44;8;8;
54869;PMS5003;40756;-37.950;145.008;2023-02-28T00:54:13;6;5;
54869;PMS5003;40756;-37.950;145.008;2023-02-28T00:56:43;6;6;
54869;PMS5003;40756;-37.950;145.008;2023-02-28T00:59:12;6;6;
54869;PMS5003;40756;-37.950;145.008;2023-02-28T01:01:43;6;5;
54869;PMS5003;40756;-37.950;145.008;2023-02-28T01:04:13;6;6;
54869;PMS5003;40756;-37.950;145.008;2023-02-28T01:06:43;5;5;
54869;PMS5003;40756;-37.950;145.008;2023-02-28T01:09:13;5;3;
54869;PMS5003;40756;-37.950;145.008;2023-02-28T01:11:43;5;4;
54869;PMS5003;40756;-37.950;145.008;2023-02-28T01:14:14;5;3;
54869;PMS5003;40756;-37.950;145.008;2023-02-28T01:16:45;3;3;
54869;PMS5003;40756;-37.950;145.008;2023-02-28T01:19:16;3;3;
54869;PMS5003;40756;-37.950;145.008;2023-02-28T01:21:46;4;4;
54869;PMS5003;40756;-37.950;145.008;2023-02-28T01:24:16;3;3;
54869;PMS5003;40756;-37.950;145.008;2023-02-28T01:26:45;4;4;
54869;PMS5003;40756;-37.950;145.008;2023-02-28T01:29:15;4;3;
54869;PMS5003;40756;-37.950;145.008;2023-02-28T01:31:45;5;4;
54869;PMS5003;40756;-37.950;145.008;2023-02-28T01:34:14;4;4;
54869;PMS5003;40756;-37.950;145.008;2023-02-28T01:36:44;7;5;
54869;PMS5003;40756;-37.950;145.008;2023-02-28T01:39:14;5;5;
54869;PMS5003;40756;-37.950;145.008;2023-02-28T01:41:43;4;3;
54869;PMS5003;40756;-37.950;145.008;2023-02-28T01:45:20;5;4;
54869;PMS5003;40756;-37.950;145.008;2023-02-28T01:47:54;5;4;
54869;PMS5003;40756;-37.950;145.008;2023-02-28T01:50:29;6;5;
54869;PMS5003;40756;-37.950;145.008;2023-02-28T01:53:04;5;4;
54869;PMS5003;40756;-37.950;145.008;2023-02-28T01:55:34;5;5;
54869;PMS5003;40756;-37.950;145.008;2023-02-28T01:58:05;4;4;
54869;PMS5003;40756;-37.950;145.008;2023-02-28T02:00:36;8;6;
54869;PMS5003;40756;-37.950;145.008;2023-02-28T02:03:06;2;2;
54869;PMS5003;40756;-37.950;145.008;2023-02-28T02:05:40;4;4;
54869;PMS5003;40756;-37.950;145.008;2023-02-28T02:08:10;4;3;
54869;PMS5003;40756;-37.950;145.008;2023-02-28T02:10:43;2;1;
54869;PMS5003;40756;-37.950;145.008;2023-02-28T02:13:21;2;2;
54869;PMS5003;40756;-37.950;145.008;2023-02-28T02:16:24;5;4;
54869;PMS5003;40756;-37.950;145.008;2023-02-28T02:19:08;4;4;
54869;PMS5003;40756;-37.950;145.008;2023-02-28T02:22:02;3;3;
54869;PMS5003;40756;-37.950;145.008;2023-02-28T02:25:00;4;4;
54869;PMS5003;40756;-37.950;145.008;2023-02-28T02:27:57;3;3;
54869;PMS5003;40756;-37.950;145.008;2023-02-28T02:30:17;3;3;
54869;PMS5003;40756;-37.950;145.008;2023-02-28T02:33:02;3;1;
54869;PMS5003;40756;-37.950;145.008;2023-02-28T02:35:55;3;3;
54869;PMS5003;40756;-37.950;145.008;2023-02-28T02:38:32;3;3;
54869;PMS5003;40756;-37.950;145.008;2023-02-28T02:41:09;2;1;
54869;PMS5003;40756;-37.950;145.008;2023-02-28T02:43:47;2;2;
54869;PMS5003;40756;-37.950;145.008;2023-02-28T02:46:24;6;2;
54869;PMS5003;40756;-37.950;145.008;2023-02-28T02:48:58;3;2;
54869;PMS5003;40756;-37.950;145.008;2023-02-28T02:51:30;4;4;
54869;PMS5003;40756;-37.950;145.008;2023-02-28T02:54:05;5;4;
54869;PMS5003;40756;-37.950;145.008;2023-02-28T02:56:39;5;5;
54869;PMS5003;40756;-37.950;145.008;2023-02-28T02:59:12;1;1;
54869;PMS5003;40756;-37.950;145.008;2023-02-28T03:01:43;4;2;
54869;PMS5003;40756;-37.950;145.008;2023-02-28T03:04:14;4;3;
54869;PMS5003;40756;-37.950;145.008;2023-02-28T03:06:46;3;3;
54869;PMS5003;40756;-37.950;145.008;2023-02-28T03:09:18;4;4;
54869;PMS5003;40756;-37.950;145.008;2023-02-28T03:11:48;6;5;
54869;PMS5003;40756;-37.950;145.008;2023-02-28T03:14:22;3;3;
54869;PMS5003;40756;-37.950;145.008;2023-02-28T03:17:02;4;4;
54869;PMS5003;40756;-37.950;145.008;2023-02-28T03:19:49;3;2;
54869;PMS5003;40756;-37.950;145.008;2023-02-28T03:22:34;5;5;
54869;PMS5003;40756;-37.950;145.008;2023-02-28T03:25:13;3;1;
54869;PMS5003;40756;-37.950;145.008;2023-02-28T03:27:53;4;3;
54869;PMS5003;40756;-37.950;145.008;2023-02-28T03:30:29;3;3;
54869;PMS5003;40756;-37.950;145.008;2023-02-28T03:33:08;4;4;
54869;PMS5003;40756;-37.950;145.008;2023-02-28T03:35:42;3;2;
54869;PMS5003;40756;-37.950;145.008;2023-02-28T03:38:19;4;3;
54869;PMS5003;40756;-37.950;145.008;2023-02-28T03:40:57;5;3;
54869;PMS5003;40756;-37.950;145.008;2023-02-28T03:43:33;3;3;
54869;PMS5003;40756;-37.950;145.008;2023-02-28T03:46:09;4;4;
54869;PMS5003;40756;-37.950;145.008;2023-02-28T03:48:42;6;5;
54869;PMS5003;40756;-37.950;145.008;2023-02-28T03:51:16;3;2;
54869;PMS5003;40756;-37.950;145.008;2023-02-28T03:53:50;1;1;
54869;PMS5003;40756;-37.950;145.008;2023-02-28T03:56:26;3;3;
54869;PMS5003;40756;-37.950;145.008;2023-02-28T03:59:02;3;2;
54869;PMS5003;40756;-37.950;145.008;2023-02-28T04:01:38;5;5;
54869;PMS5003;40756;-37.950;145.008;2023-02-28T04:04:10;4;4;
54869;PMS5003;40756;-37.950;145.008;2023-02-28T04:06:41;5;4;
54869;PMS5003;40756;-37.950;145.008;2023-02-28T04:09:12;4;4;
54869;PMS5003;40756;-37.950;145.008;2023-02-28T04:11:43;3;2;
54869;PMS5003;40756;-37.950;145.008;2023-02-28T04:14:16;3;3;
54869;PMS5003;40756;-37.950;145.008;2023-02-28T04:16:46;2;2;
54869;PMS5003;40756;-37.950;145.008;2023-02-28T04:19:16;3;3;
54869;PMS5003;40756;-37.950;145.008;2023-02-28T04:21:47;3;3;
54869;PMS5003;40756;-37.950;145.008;2023-02-28T04:24:20;3;2;
54869;PMS5003;40756;-37.950;145.008;2023-02-28T04:26:51;4;4;
54869;PMS5003;40756;-37.950;145.008;2023-02-28T04:29:24;7;7;
54869;PMS5003;40756;-37.950;145.008;2023-02-28T04:31:55;2;2;
54869;PMS5003;40756;-37.950;145.008;2023-02-28T04:34:25;4;4;
54869;PMS5003;40756;-37.950;145.008;2023-02-28T04:36:56;3;3;
54869;PMS5003;40756;-37.950;145.008;2023-02-28T04:39:26;4;4;
54869;PMS5003;40756;-37.950;145.008;2023-02-28T04:41:55;5;5;
54869;PMS5003;40756;-37.950;145.008;2023-02-28T04:44:25;2;2;
54869;PMS5003;40756;-37.950;145.008;2023-02-28T04:46:54;3;3;
54869;PMS5003;40756;-37.950;145.008;2023-02-28T04:49:24;3;3;
54869;PMS5003;40756;-37.950;145.008;2023-02-28T04:51:53;3;3;
54869;PMS5003;40756;-37.950;145.008;2023-02-28T04:54:23;4;2;
54869;PMS5003;40756;-37.950;145.008;2023-02-28T04:56:53;4;3;
54869;PMS5003;40756;-37.950;145.008;2023-02-28T04:59:22;3;3;
54869;PMS5003;40756;-37.950;145.008;2023-02-28T05:01:52;2;1;
54869;PMS5003;40756;-37.950;145.008;2023-02-28T05:04:21;2;2;
54869;PMS5003;40756;-37.950;145.008;2023-02-28T05:06:50;2;2;
54869;PMS5003;40756;-37.950;145.008;2023-02-28T05:09:20;2;2;
54869;PMS5003;40756;-37.950;145.008;2023-02-28T05:11:49;3;2;
54869;PMS5003;40756;-37.950;145.008;2023-02-28T05:14:19;3;3;
54869;PMS5003;40756;-37.950;145.008;2023-02-28T05:16:49;3;3;
54869;PMS5003;40756;-37.950;145.008;2023-02-28T05:19:18;2;2;
54869;PMS5003;40756;-37.950;145.008;2023-02-28T05:21:49;3;3;
54869;PMS5003;40756;-37.950;145.008;2023-02-28T05:24:21;2;1;
54869;PMS5003;40756;-37.950;145.008;2023-02-28T05:26:53;3;3;
54869;PMS5003;40756;-37.950;145.008;2023-02-28T05:29:23;2;1;
54869;PMS5003;40756;-37.950;145.008;2023-02-28T05:31:52;4;3;
54869;PMS5003;40756;-37.950;145.008;2023-02-28T05:34:22;3;3;
54869;PMS5003;40756;-37.950;145.008;2023-02-28T05:36:51;2;1;
54869;PMS5003;40756;-37.950;145.008;2023-02-28T05:39:21;4;3;
54869;PMS5003;40756;-37.950;145.008;2023-02-28T05:41:50;2;2;
54869;PMS5003;40756;-37.950;145.008;2023-02-28T05:44:20;4;2;
54869;PMS5003;40756;-37.950;145.008;2023-02-28T05:46:50;1;1;
54869;PMS5003;40756;-37.950;145.008;2023-02-28T05:49:19;3;3;
54869;PMS5003;40756;-37.950;145.008;2023-02-28T05:51:49;2;2;
54869;PMS5003;40756;-37.950;145.008;2023-02-28T05:54:18;2;2;
54869;PMS5003;40756;-37.950;145.008;2023-02-28T05:56:48;2;2;
54869;PMS5003;40756;-37.950;145.008;2023-02-28T05:59:17;4;1;
54869;PMS5003;40756;-37.950;145.008;2023-02-28T06:01:49;2;2;
54869;PMS5003;40756;-37.950;145.008;2023-02-28T06:04:19;2;2;
54869;PMS5003;40756;-37.950;145.008;2023-02-28T06:06:49;1;0;
54869;PMS5003;40756;-37.950;145.008;2023-02-28T06:09:19;4;3;
54869;PMS5003;40756;-37.950;145.008;2023-02-28T06:11:48;2;2;
54869;PMS5003;40756;-37.950;145.008;2023-02-28T06:14:18;4;3;
54869;PMS5003;40756;-37.950;145.008;2023-02-28T06:16:48;1;1;
54869;PMS5003;40756;-37.950;145.008;2023-02-28T06:19:18;2;2;
54869;PMS5003;40756;-37.950;145.008;2023-02-28T06:21:50;1;1;
54869;PMS5003;40756;-37.950;145.008;2023-02-28T06:24:24;3;2;
54869;PMS5003;40756;-37.950;145.008;2023-02-28T06:26:54;1;1;
54869;PMS5003;40756;-37.950;145.008;2023-02-28T06:29:24;2;2;
54869;PMS5003;40756;-37.950;145.008;2023-02-28T06:31:54;3;2;
54869;PMS5003;40756;-37.950;145.008;2023-02-28T06:34:23;2;2;
54869;PMS5003;40756;-37.950;145.008;2023-02-28T06:36:53;2;1;
54869;PMS5003;40756;-37.950;145.008;2023-02-28T06:39:23;2;1;
54869;PMS5003;40756;-37.950;145.008;2023-02-28T06:41:54;2;1;
54869;PMS5003;40756;-37.950;145.008;2023-02-28T06:44:23;1;1;
54869;PMS5003;40756;-37.950;145.008;2023-02-28T06:46:54;2;2;
54869;PMS5003;40756;-37.950;145.008;2023-02-28T06:49:24;1;1;
54869;PMS5003;40756;-37.950;145.008;2023-02-28T06:51:55;4;2;
54869;PMS5003;40756;-37.950;145.008;2023-02-28T06:54:25;3;1;
54869;PMS5003;40756;-37.950;145.008;2023-02-28T06:56:54;3;1;
54869;PMS5003;40756;-37.950;145.008;2023-02-28T06:59:25;2;2;
54869;PMS5003;40756;-37.950;145.008;2023-02-28T07:01:55;3;2;
54869;PMS5003;40756;-37.950;145.008;2023-02-28T07:04:24;2;2;
54869;PMS5003;40756;-37.950;145.008;2023-02-28T07:06:54;1;1;
54869;PMS5003;40756;-37.950;145.008;2023-02-28T07:09:24;1;1;
54869;PMS5003;40756;-37.950;145.008;2023-02-28T07:11:54;2;1;
54869;PMS5003;40756;-37.950;145.008;2023-02-28T07:14:23;1;1;
54869;PMS5003;40756;-37.950;145.008;2023-02-28T07:16:53;3;2;
54869;PMS5003;40756;-37.950;145.008;2023-02-28T07:19:22;2;2;
54869;PMS5003;40756;-37.950;145.008;2023-02-28T07:21:52;4;3;
54869;PMS5003;40756;-37.950;145.008;2023-02-28T07:24:23;2;2;
54869;PMS5003;40756;-37.950;145.008;2023-02-28T07:26:52;2;1;
54869;PMS5003;40756;-37.950;145.008;2023-02-28T07:29:22;1;1;
54869;PMS5003;40756;-37.950;145.008;2023-02-28T07:31:52;2;1;
54869;PMS5003;40756;-37.950;145.008;2023-02-28T07:34:22;2;2;
54869;PMS5003;40756;-37.950;145.008;2023-02-28T07:36:53;0;0;
54869;PMS5003;40756;-37.950;145.008;2023-02-28T07:39:23;1;1;
54869;PMS5003;40756;-37.950;145.008;2023-02-28T07:41:53;2;2;
54869;PMS5003;40756;-37.950;145.008;2023-02-28T07:44:22;3;3;
54869;PMS5003;40756;-37.950;145.008;2023-02-28T07:46:51;1;1;
54869;PMS5003;40756;-37.950;145.008;2023-02-28T07:49:21;2;1;
54869;PMS5003;40756;-37.950;145.008;2023-02-28T07:51:51;2;2;
54869;PMS5003;40756;-37.950;145.008;2023-02-28T07:54:20;2;1;
54869;PMS5003;40756;-37.950;145.008;2023-02-28T07:56:50;1;1;
54869;PMS5003;40756;-37.950;145.008;2023-02-28T07:59:19;0;0;
54869;PMS5003;40756;-37.950;145.008;2023-02-28T08:01:49;1;0;
54869;PMS5003;40756;-37.950;145.008;2023-02-28T08:04:19;1;1;
54869;PMS5003;40756;-37.950;145.008;2023-02-28T08:06:48;2;2;
54869;PMS5003;40756;-37.950;145.008;2023-02-28T08:09:17;2;2;
54869;PMS5003;40756;-37.950;145.008;2023-02-28T08:11:47;3;3;
54869;PMS5003;40756;-37.950;145.008;2023-02-28T08:14:17;2;2;
54869;PMS5003;40756;-37.950;145.008;2023-02-28T08:16:46;1;1;
54869;PMS5003;40756;-37.950;145.008;2023-02-28T08:19:16;2;2;
54869;PMS5003;40756;-37.950;145.008;2023-02-28T08:21:45;3;2;
54869;PMS5003;40756;-37.950;145.008;2023-02-28T08:24:16;0;0;
54869;PMS5003;40756;-37.950;145.008;2023-02-28T08:26:46;1;1;
54869;PMS5003;40756;-37.950;145.008;2023-02-28T08:29:16;1;1;
54869;PMS5003;40756;-37.950;145.008;2023-02-28T08:31:45;0;0;
54869;PMS5003;40756;-37.950;145.008;2023-02-28T08:34:15;1;1;
54869;PMS5003;40756;-37.950;145.008;2023-02-28T08:36:44;3;3;
54869;PMS5003;40756;-37.950;145.008;2023-02-28T08:39:14;1;1;
54869;PMS5003;40756;-37.950;145.008;2023-02-28T08:41:44;1;1;
54869;PMS5003;40756;-37.950;145.008;2023-02-28T08:44:13;3;3;
54869;PMS5003;40756;-37.950;145.008;2023-02-28T08:46:43;2;2;
54869;PMS5003;40756;-37.950;145.008;2023-02-28T08:49:12;2;2;
54869;PMS5003;40756;-37.950;145.008;2023-02-28T08:51:42;1;1;
54869;PMS5003;40756;-37.950;145.008;2023-02-28T08:54:12;1;1;
54869;PMS5003;40756;-37.950;145.008;2023-02-28T08:56:41;1;1;
54869;PMS5003;40756;-37.950;145.008;2023-02-28T08:59:11;3;1;
54869;PMS5003;40756;-37.950;145.008;2023-02-28T09:01:40;0;0;
54869;PMS5003;40756;-37.950;145.008;2023-02-28T09:04:10;2;2;
54869;PMS5003;40756;-37.950;145.008;2023-02-28T09:06:39;1;1;
54869;PMS5003;40756;-37.950;145.008;2023-02-28T09:09:09;1;0;
54869;PMS5003;40756;-37.950;145.008;2023-02-28T09:11:38;2;1;
54869;PMS5003;40756;-37.950;145.008;2023-02-28T09:14:08;1;1;
54869;PMS5003;40756;-37.950;145.008;2023-02-28T09:16:38;1;1;
54869;PMS5003;40756;-37.950;145.008;2023-02-28T09:19:08;2;2;
54869;PMS5003;40756;-37.950;145.008;2023-02-28T09:21:39;3;2;
54869;PMS5003;40756;-37.950;145.008;2023-02-28T09:24:09;3;2;
54869;PMS5003;40756;-37.950;145.008;2023-02-28T09:26:39;0;0;
54869;PMS5003;40756;-37.950;145.008;2023-02-28T09:29:10;2;2;
54869;PMS5003;40756;-37.950;145.008;2023-02-28T09:31:41;1;1;
54869;PMS5003;40756;-37.950;145.008;2023-02-28T09:34:11;2;1;
54869;PMS5003;40756;-37.950;145.008;2023-02-28T09:36:40;4;2;
54869;PMS5003;40756;-37.950;145.008;2023-02-28T09:39:10;2;1;
54869;PMS5003;40756;-37.950;145.008;2023-02-28T09:41:41;1;1;
54869;PMS5003;40756;-37.950;145.008;2023-02-28T09:44:13;2;2;
54869;PMS5003;40756;-37.950;145.008;2023-02-28T09:46:50;2;2;
54869;PMS5003;40756;-37.950;145.008;2023-02-28T09:49:27;2;2;
54869;PMS5003;40756;-37.950;145.008;2023-02-28T09:52:04;0;0;
54869;PMS5003;40756;-37.950;145.008;2023-02-28T09:54:37;1;1;
54869;PMS5003;40756;-37.950;145.008;2023-02-28T09:57:08;1;1;
54869;PMS5003;40756;-37.950;145.008;2023-02-28T09:59:49;1;1;
54869;PMS5003;40756;-37.950;145.008;2023-02-28T10:02:41;0;0;
54869;PMS5003;40756;-37.950;145.008;2023-02-28T10:05:26;3;2;
54869;PMS5003;40756;-37.950;145.008;2023-02-28T10:08:03;1;1;
54869;PMS5003;40756;-37.950;145.008;2023-02-28T10:10:39;0;0;
54869;PMS5003;40756;-37.950;145.008;2023-02-28T10:13:14;0;0;
54869;PMS5003;40756;-37.950;145.008;2023-02-28T10:15:51;2;1;
54869;PMS5003;40756;-37.950;145.008;2023-02-28T10:18:26;2;2;
54869;PMS5003;40756;-37.950;145.008;2023-02-28T10:20:57;2;1;
54869;PMS5003;40756;-37.950;145.008;2023-02-28T10:23:28;2;2;
54869;PMS5003;40756;-37.950;145.008;2023-02-28T10:26:05;2;2;
54869;PMS5003;40756;-37.950;145.008;2023-02-28T10:28:45;1;1;
54869;PMS5003;40756;-37.950;145.008;2023-02-28T10:31:17;2;1;
54869;PMS5003;40756;-37.950;145.008;2023-02-28T10:33:47;1;1;
54869;PMS5003;40756;-37.950;145.008;2023-02-28T10:36:18;1;0;
54869;PMS5003;40756;-37.950;145.008;2023-02-28T10:38:48;1;0;
54869;PMS5003;40756;-37.950;145.008;2023-02-28T10:41:27;0;0;
54869;PMS5003;40756;-37.950;145.008;2023-02-28T10:44:13;0;0;
54869;PMS5003;40756;-37.950;145.008;2023-02-28T10:46:49;1;1;
54869;PMS5003;40756;-37.950;145.008;2023-02-28T10:49:21;1;1;
54869;PMS5003;40756;-37.950;145.008;2023-02-28T10:51:52;3;2;
54869;PMS5003;40756;-37.950;145.008;2023-02-28T10:54:24;1;1;
54869;PMS5003;40756;-37.950;145.008;2023-02-28T10:57:30;1;1;
54869;PMS5003;40756;-37.950;145.008;2023-02-28T11:00:07;0;0;
54869;PMS5003;40756;-37.950;145.008;2023-02-28T11:02:44;1;1;
54869;PMS5003;40756;-37.950;145.008;2023-02-28T11:05:30;2;1;
54869;PMS5003;40756;-37.950;145.008;2023-02-28T11:08:04;3;2;
54869;PMS5003;40756;-37.950;145.008;2023-02-28T11:10:43;1;1;
54869;PMS5003;40756;-37.950;145.008;2023-02-28T11:13:17;2;1;
54869;PMS5003;40756;-37.950;145.008;2023-02-28T11:15:51;1;1;
54869;PMS5003;40756;-37.950;145.008;2023-02-28T11:18:24;1;1;
54869;PMS5003;40756;-37.950;145.008;2023-02-28T11:20:58;1;1;
54869;PMS5003;40756;-37.950;145.008;2023-02-28T11:23:29;3;3;
54869;PMS5003;40756;-37.950;145.008;2023-02-28T11:26:02;0;0;
54869;PMS5003;40756;-37.950;145.008;2023-02-28T11:28:33;1;1;
54869;PMS5003;40756;-37.950;145.008;2023-02-28T11:31:05;1;1;
54869;PMS5003;40756;-37.950;145.008;2023-02-28T11:33:44;1;1;
54869;PMS5003;40756;-37.950;145.008;2023-02-28T11:36:18;1;0;
54869;PMS5003;40756;-37.950;145.008;2023-02-28T11:38:50;1;1;
54869;PMS5003;40756;-37.950;145.008;2023-02-28T11:41:28;1;1;
54869;PMS5003;40756;-37.950;145.008;2023-02-28T11:44:13;1;1;
54869;PMS5003;40756;-37.950;145.008;2023-02-28T11:46:57;0;0;
54869;PMS5003;40756;-37.950;145.008;2023-02-28T11:49:33;1;1;
54869;PMS5003;40756;-37.950;145.008;2023-02-28T11:52:16;1;0;
54869;PMS5003;40756;-37.950;145.008;2023-02-28T11:55:04;1;0;
54869;PMS5003;40756;-37.950;145.008;2023-02-28T11:57:49;2;2;
54869;PMS5003;40756;-37.950;145.008;2023-02-28T12:01:04;0;0;
54869;PMS5003;40756;-37.950;145.008;2023-02-28T12:03:45;2;1;
54869;PMS5003;40756;-37.950;145.008;2023-02-28T12:06:27;1;1;
54869;PMS5003;40756;-37.950;145.008;2023-02-28T12:09:08;1;1;
54869;PMS5003;40756;-37.950;145.008;2023-02-28T12:11:52;1;1;
54869;PMS5003;40756;-37.950;145.008;2023-02-28T12:14:34;1;1;
54869;PMS5003;40756;-37.950;145.008;2023-02-28T12:17:21;1;1;
54869;PMS5003;40756;-37.950;145.008;2023-02-28T12:20:02;1;1;
54869;PMS5003;40756;-37.950;145.008;2023-02-28T12:22:42;2;1;
54869;PMS5003;40756;-37.950;145.008;2023-02-28T12:25:28;1;1;
54869;PMS5003;40756;-37.950;145.008;2023-02-28T12:28:12;0;0;
54869;PMS5003;40756;-37.950;145.008;2023-02-28T12:30:49;0;0;
54869;PMS5003;40756;-37.950;145.008;2023-02-28T12:33:26;1;0;
54869;PMS5003;40756;-37.950;145.008;2023-02-28T12:36:03;0;0;
54869;PMS5003;40756;-37.950;145.008;2023-02-28T12:38:39;1;1;
54869;PMS5003;40756;-37.950;145.008;2023-02-28T12:41:13;1;1;
54869;PMS5003;40756;-37.950;145.008;2023-02-28T12:43:46;0;0;
54869;PMS5003;40756;-37.950;145.008;2023-02-28T12:46:21;2;1;
54869;PMS5003;40756;-37.950;145.008;2023-02-28T12:48:54;0;0;
54869;PMS5003;40756;-37.950;145.008;2023-02-28T12:51:26;0;0;
54869;PMS5003;40756;-37.950;145.008;2023-02-28T12:53:59;0;0;
54869;PMS5003;40756;-37.950;145.008;2023-02-28T12:56:43;0;0;
54869;PMS5003;40756;-37.950;145.008;2023-02-28T12:59:19;1;1;
54869;PMS5003;40756;-37.950;145.008;2023-02-28T13:02:01;2;2;
54869;PMS5003;40756;-37.950;145.008;2023-02-28T13:05:04;0;0;
54869;PMS5003;40756;-37.950;145.008;2023-02-28T13:09:56;2;2;
54869;PMS5003;40756;-37.950;145.008;2023-02-28T13:12:28;0;0;
54869;PMS5003;40756;-37.950;145.008;2023-02-28T13:15:06;0;0;
54869;PMS5003;40756;-37.950;145.008;2023-02-28T13:17:44;0;0;
54869;PMS5003;40756;-37.950;145.008;2023-02-28T13:20:19;1;0;
54869;PMS5003;40756;-37.950;145.008;2023-02-28T13:22:52;0;0;
54869;PMS5003;40756;-37.950;145.008;2023-02-28T13:25:50;0;0;
54869;PMS5003;40756;-37.950;145.008;2023-02-28T13:28:58;1;1;
54869;PMS5003;40756;-37.950;145.008;2023-02-28T13:31:28;2;1;
54869;PMS5003;40756;-37.950;145.008;2023-02-28T13:34:12;2;1;
54869;PMS5003;40756;-37.950;145.008;2023-02-28T13:36:44;1;1;
54869;PMS5003;40756;-37.950;145.008;2023-02-28T13:39:46;0;0;
54869;PMS5003;40756;-37.950;145.008;2023-02-28T13:42:33;0;0;
54869;PMS5003;40756;-37.950;145.008;2023-02-28T13:45:21;1;0;
54869;PMS5003;40756;-37.950;145.008;2023-02-28T13:47:53;0;0;
54869;PMS5003;40756;-37.950;145.008;2023-02-28T13:50:30;0;0;
54869;PMS5003;40756;-37.950;145.008;2023-02-28T13:53:14;3;1;
54869;PMS5003;40756;-37.950;145.008;2023-02-28T13:57:06;0;0;
54869;PMS5003;40756;-37.950;145.008;2023-02-28T13:59:50;3;3;
54869;PMS5003;40756;-37.950;145.008;2023-02-28T14:02:34;0;0;
54869;PMS5003;40756;-37.950;145.008;2023-02-28T14:05:17;3;1;
54869;PMS5003;40756;-37.950;145.008;2023-02-28T14:07:48;0;0;
54869;PMS5003;40756;-37.950;145.008;2023-02-28T14:10:24;0;0;
54869;PMS5003;40756;-37.950;145.008;2023-02-28T14:12:57;1;1;
54869;PMS5003;40756;-37.950;145.008;2023-02-28T14:15:48;1;1;
54869;PMS5003;40756;-37.950;145.008;2023-02-28T14:18:25;1;1;
54869;PMS5003;40756;-37.950;145.008;2023-02-28T14:21:01;0;0;
54869;PMS5003;40756;-37.950;145.008;2023-02-28T14:23:41;1;1;
54869;PMS5003;40756;-37.950;145.008;2023-02-28T14:26:35;1;1;
54869;PMS5003;40756;-37.950;145.008;2023-02-28T14:31:22;0;0;
54869;PMS5003;40756;-37.950;145.008;2023-02-28T14:34:02;0;0;
54869;PMS5003;40756;-37.950;145.008;2023-02-28T14:36:50;1;1;
54869;PMS5003;40756;-37.950;145.008;2023-02-28T14:39:25;1;0;
54869;PMS5003;40756;-37.950;145.008;2023-02-28T14:41:55;3;1;
54869;PMS5003;40756;-37.950;145.008;2023-02-28T14:44:26;0;0;
54869;PMS5003;40756;-37.950;145.008;2023-02-28T14:46:57;1;0;
54869;PMS5003;40756;-37.950;145.008;2023-02-28T14:49:44;0;0;
54869;PMS5003;40756;-37.950;145.008;2023-02-28T14:52:17;1;1;
54869;PMS5003;40756;-37.950;145.008;2023-02-28T14:54:52;0;0;
54869;PMS5003;40756;-37.950;145.008;2023-02-28T14:57:24;0;0;
54869;PMS5003;40756;-37.950;145.008;2023-02-28T14:59:59;0;0;
54869;PMS5003;40756;-37.950;145.008;2023-02-28T15:02:30;0;0;
54869;PMS5003;40756;-37.950;145.008;2023-02-28T15:05:16;1;1;
54869;PMS5003;40756;-37.950;145.008;2023-02-28T15:08:01;1;1;
54869;PMS5003;40756;-37.950;145.008;2023-02-28T15:10:37;2;0;
54869;PMS5003;40756;-37.950;145.008;2023-02-28T15:13:11;0;0;
54869;PMS5003;40756;-37.950;145.008;2023-02-28T15:15:44;1;1;
54869;PMS5003;40756;-37.950;145.008;2023-02-28T15:18:21;0;0;
54869;PMS5003;40756;-37.950;145.008;2023-02-28T15:20:58;1;1;
54869;PMS5003;40756;-37.950;145.008;2023-02-28T15:23:30;0;0;
54869;PMS5003;40756;-37.950;145.008;2023-02-28T15:26:03;0;0;
54869;PMS5003;40756;-37.950;145.008;2023-02-28T15:28:33;1;1;
54869;PMS5003;40756;-37.950;145.008;2023-02-28T15:31:03;1;1;
54869;PMS5003;40756;-37.950;145.008;2023-02-28T15:33:53;0;0;
54869;PMS5003;40756;-37.950;145.008;2023-02-28T15:36:25;1;1;
54869;PMS5003;40756;-37.950;145.008;2023-02-28T15:38:57;0;0;
54869;PMS5003;40756;-37.950;145.008;2023-02-28T15:41:35;0;0;
54869;PMS5003;40756;-37.950;145.008;2023-02-28T15:44:38;0;0;
54869;PMS5003;40756;-37.950;145.008;2023-02-28T15:47:16;0;0;
54869;PMS5003;40756;-37.950;145.008;2023-02-28T15:49:49;0;0;
54869;PMS5003;40756;-37.950;145.008;2023-02-28T15:52:23;0;0;
54869;PMS5003;40756;-37.950;145.008;2023-02-28T15:54:57;0;0;
54869;PMS5003;40756;-37.950;145.008;2023-02-28T15:57:35;0;0;
54869;PMS5003;40756;-37.950;145.008;2023-02-28T16:03:27;1;0;
54869;PMS5003;40756;-37.950;145.008;2023-02-28T16:06:12;0;0;
54869;PMS5003;40756;-37.950;145.008;2023-02-28T16:06:39;0;0;
54869;PMS5003;40756;-37.950;145.008;2023-02-28T16:09:10;1;1;
54869;PMS5003;40756;-37.950;145.008;2023-02-28T16:11:42;0;0;
54869;PMS5003;40756;-37.950;145.008;2023-02-28T16:14:14;1;1;
54869;PMS5003;40756;-37.950;145.008;2023-02-28T16:16:47;0;0;
54869;PMS5003;40756;-37.950;145.008;2023-02-28T16:19:18;0;0;
54869;PMS5003;40756;-37.950;145.008;2023-02-28T16:21:49;0;0;
54869;PMS5003;40756;-37.950;145.008;2023-02-28T16:24:18;0;0;
54869;PMS5003;40756;-37.950;145.008;2023-02-28T16:26:48;0;0;
54869;PMS5003;40756;-37.950;145.008;2023-02-28T16:29:23;0;0;
54869;PMS5003;40756;-37.950;145.008;2023-02-28T16:31:54;0;0;
54869;PMS5003;40756;-37.950;145.008;2023-02-28T16:34:24;0;0;
54869;PMS5003;40756;-37.950;145.008;2023-02-28T16:36:54;1;1;
54869;PMS5003;40756;-37.950;145.008;2023-02-28T16:39:24;0;0;
54869;PMS5003;40756;-37.950;145.008;2023-02-28T16:41:54;1;0;
54869;PMS5003;40756;-37.950;145.008;2023-02-28T16:44:26;1;0;
54869;PMS5003;40756;-37.950;145.008;2023-02-28T16:46:59;1;1;
54869;PMS5003;40756;-37.950;145.008;2023-02-28T16:49:30;0;0;
54869;PMS5003;40756;-37.950;145.008;2023-02-28T16:51:59;0;0;
54869;PMS5003;40756;-37.950;145.008;2023-02-28T16:54:29;1;0;